sensor_id;sensor_type;location;lat;lon;timestamp;P1;durP1;ratioP1;P2;durP2;ratioP2
68987;SDS011;56038;46.080;11.116;2024-01-15T00:01:41;14.27;;;9.43;;
68987;SDS011;56038;46.080;11.116;2024-01-15T00:06:45;14.43;;;8.60;;
68987;SDS011;56038;46.080;11.116;2024-01-15T00:11:46;12.93;;;9.02;;
68987;SDS011;56038;46.080;11.116;2024-01-15T00:16:48;14.70;;;8.60;;
68987;SDS011;56038;46.080;11.116;2024-01-15T00:21:52;12.70;;;8.07;;
68987;SDS011;56038;46.080;11.116;2024-01-15T00:26:54;9.35;;;7.57;;
68987;SDS011;56038;46.080;11.116;2024-01-15T00:31:55;11.50;;;7.85;;
68987;SDS011;56038;46.080;11.116;2024-01-15T00:36:59;10.95;;;7.35;;
68987;SDS011;56038;46.080;11.116;2024-01-15T00:42:00;12.32;;;7.25;;
68987;SDS011;56038;46.080;11.116;2024-01-15T00:47:03;13.70;;;7.35;;
68987;SDS011;56038;46.080;11.116;2024-01-15T00:52:06;9.35;;;7.18;;
68987;SDS011;56038;46.080;11.116;2024-01-15T00:57:08;9.27;;;6.88;;
68987;SDS011;56038;46.080;11.116;2024-01-15T01:02:09;9.27;;;6.10;;
68987;SDS011;56038;46.080;11.116;2024-01-15T01:07:13;8.60;;;5.95;;
68987;SDS011;56038;46.080;11.116;2024-01-15T01:12:15;9.73;;;6.28;;
68987;SDS011;56038;46.080;11.116;2024-01-15T01:17:17;10.45;;;6.65;;
68987;SDS011;56038;46.080;11.116;2024-01-15T01:22:20;9.13;;;6.63;;
68987;SDS011;56038;46.080;11.116;2024-01-15T01:27:22;8.60;;;6.38;;
68987;SDS011;56038;46.080;11.116;2024-01-15T01:32:24;8.35;;;6.00;;
68987;SDS011;56038;46.080;11.116;2024-01-15T01:37:27;8.57;;;5.95;;
68987;SDS011;56038;46.080;11.116;2024-01-15T01:42:29;7.75;;;6.10;;
68987;SDS011;56038;46.080;11.116;2024-01-15T01:47:31;8.70;;;5.95;;
68987;SDS011;56038;46.080;11.116;2024-01-15T01:52:34;9.35;;;6.50;;
68987;SDS011;56038;46.080;11.116;2024-01-15T01:57:37;7.90;;;5.35;;
68987;SDS011;56038;46.080;11.116;2024-01-15T02:02:39;6.93;;;5.85;;
68987;SDS011;56038;46.080;11.116;2024-01-15T02:07:42;8.15;;;5.63;;
68987;SDS011;56038;46.080;11.116;2024-01-15T02:12:45;7.80;;;6.15;;
68987;SDS011;56038;46.080;11.116;2024-01-15T02:17:58;8.02;;;5.85;;
68987;SDS011;56038;46.080;11.116;2024-01-15T02:23:03;8.93;;;6.30;;
68987;SDS011;56038;46.080;11.116;2024-01-15T02:28:09;8.55;;;5.47;;
68987;SDS011;56038;46.080;11.116;2024-01-15T02:33:12;7.13;;;5.55;;
68987;SDS011;56038;46.080;11.116;2024-01-15T02:38:15;7.05;;;6.00;;
68987;SDS011;56038;46.080;11.116;2024-01-15T02:43:17;8.65;;;6.50;;
68987;SDS011;56038;46.080;11.116;2024-01-15T02:48:19;6.00;;;5.28;;
68987;SDS011;56038;46.080;11.116;2024-01-15T02:53:22;8.48;;;6.35;;
68987;SDS011;56038;46.080;11.116;2024-01-15T02:58:23;9.73;;;5.93;;
68987;SDS011;56038;46.080;11.116;2024-01-15T03:03:25;7.22;;;5.32;;
68987;SDS011;56038;46.080;11.116;2024-01-15T03:08:28;8.90;;;6.32;;
68987;SDS011;56038;46.080;11.116;2024-01-15T03:13:30;8.50;;;5.93;;
68987;SDS011;56038;46.080;11.116;2024-01-15T03:18:32;8.60;;;6.85;;
68987;SDS011;56038;46.080;11.116;2024-01-15T03:23:35;7.55;;;5.95;;
68987;SDS011;56038;46.080;11.116;2024-01-15T03:28:36;10.70;;;6.72;;
68987;SDS011;56038;46.080;11.116;2024-01-15T03:33:38;9.55;;;6.78;;
68987;SDS011;56038;46.080;11.116;2024-01-15T03:38:41;10.05;;;6.13;;
68987;SDS011;56038;46.080;11.116;2024-01-15T03:43:43;9.18;;;6.78;;
68987;SDS011;56038;46.080;11.116;2024-01-15T03:48:44;6.68;;;5.78;;
68987;SDS011;56038;46.080;11.116;2024-01-15T03:53:47;8.40;;;5.63;;
68987;SDS011;56038;46.080;11.116;2024-01-15T03:58:49;9.57;;;6.25;;
68987;SDS011;56038;46.080;11.116;2024-01-15T04:03:51;8.27;;;6.30;;
68987;SDS011;56038;46.080;11.116;2024-01-15T04:08:54;9.63;;;6.65;;
68987;SDS011;56038;46.080;11.116;2024-01-15T04:13:55;9.25;;;6.07;;
68987;SDS011;56038;46.080;11.116;2024-01-15T04:18:57;9.65;;;6.47;;
68987;SDS011;56038;46.080;11.116;2024-01-15T04:24:00;8.65;;;6.10;;
68987;SDS011;56038;46.080;11.116;2024-01-15T04:29:01;8.35;;;5.55;;
68987;SDS011;56038;46.080;11.116;2024-01-15T04:34:03;9.40;;;5.95;;
68987;SDS011;56038;46.080;11.116;2024-01-15T04:39:06;10.45;;;7.03;;
68987;SDS011;56038;46.080;11.116;2024-01-15T04:44:07;11.23;;;6.57;;
68987;SDS011;56038;46.080;11.116;2024-01-15T04:49:09;10.57;;;6.43;;
68987;SDS011;56038;46.080;11.116;2024-01-15T04:54:13;8.80;;;6.05;;
68987;SDS011;56038;46.080;11.116;2024-01-15T04:59:17;6.97;;;5.20;;
68987;SDS011;56038;46.080;11.116;2024-01-15T05:04:19;8.30;;;5.78;;
68987;SDS011;56038;46.080;11.116;2024-01-15T05:09:22;10.30;;;6.80;;
68987;SDS011;56038;46.080;11.116;2024-01-15T05:14:23;6.57;;;5.53;;
68987;SDS011;56038;46.080;11.116;2024-01-15T05:19:25;9.23;;;6.50;;
68987;SDS011;56038;46.080;11.116;2024-01-15T05:24:28;9.45;;;6.25;;
68987;SDS011;56038;46.080;11.116;2024-01-15T05:29:30;7.82;;;6.47;;
68987;SDS011;56038;46.080;11.116;2024-01-15T05:34:31;9.43;;;6.57;;
68987;SDS011;56038;46.080;11.116;2024-01-15T05:39:34;10.88;;;6.65;;
68987;SDS011;56038;46.080;11.116;2024-01-15T05:44:37;8.23;;;5.72;;
68987;SDS011;56038;46.080;11.116;2024-01-15T05:49:38;8.45;;;6.60;;
68987;SDS011;56038;46.080;11.116;2024-01-15T05:54:41;8.43;;;5.78;;
68987;SDS011;56038;46.080;11.116;2024-01-15T05:59:44;7.95;;;5.90;;
68987;SDS011;56038;46.080;11.116;2024-01-15T06:04:46;9.88;;;6.07;;
68987;SDS011;56038;46.080;11.116;2024-01-15T06:09:49;8.50;;;6.10;;
68987;SDS011;56038;46.080;11.116;2024-01-15T06:14:51;11.48;;;6.53;;
68987;SDS011;56038;46.080;11.116;2024-01-15T06:19:52;12.40;;;6.40;;
68987;SDS011;56038;46.080;11.116;2024-01-15T06:24:55;9.88;;;7.00;;
68987;SDS011;56038;46.080;11.116;2024-01-15T06:29:57;9.38;;;7.25;;
68987;SDS011;56038;46.080;11.116;2024-01-15T06:34:58;9.68;;;7.57;;
68987;SDS011;56038;46.080;11.116;2024-01-15T06:40:02;9.48;;;6.80;;
68987;SDS011;56038;46.080;11.116;2024-01-15T06:45:06;14.57;;;7.28;;
68987;SDS011;56038;46.080;11.116;2024-01-15T06:50:08;10.05;;;6.63;;
68987;SDS011;56038;46.080;11.116;2024-01-15T06:55:11;9.65;;;6.60;;
68987;SDS011;56038;46.080;11.116;2024-01-15T07:00:14;10.18;;;6.75;;
68987;SDS011;56038;46.080;11.116;2024-01-15T07:05:16;9.73;;;6.05;;
68987;SDS011;56038;46.080;11.116;2024-01-15T07:10:19;15.13;;;7.80;;
68987;SDS011;56038;46.080;11.116;2024-01-15T07:15:21;10.45;;;6.97;;
68987;SDS011;56038;46.080;11.116;2024-01-15T07:20:23;14.60;;;8.80;;
68987;SDS011;56038;46.080;11.116;2024-01-15T07:25:26;14.32;;;8.20;;
68987;SDS011;56038;46.080;11.116;2024-01-15T07:30:27;9.27;;;6.93;;
68987;SDS011;56038;46.080;11.116;2024-01-15T07:35:29;10.65;;;8.75;;
68987;SDS011;56038;46.080;11.116;2024-01-15T07:40:32;14.63;;;7.40;;
68987;SDS011;56038;46.080;11.116;2024-01-15T07:45:34;14.50;;;8.35;;
68987;SDS011;56038;46.080;11.116;2024-01-15T07:50:36;9.57;;;6.97;;
68987;SDS011;56038;46.080;11.116;2024-01-15T07:55:39;9.98;;;7.28;;
68987;SDS011;56038;46.080;11.116;2024-01-15T08:00:40;7.88;;;6.55;;
68987;SDS011;56038;46.080;11.116;2024-01-15T08:05:42;14.18;;;7.78;;
68987;SDS011;56038;46.080;11.116;2024-01-15T08:10:45;11.60;;;8.30;;
68987;SDS011;56038;46.080;11.116;2024-01-15T08:15:46;13.57;;;8.20;;
68987;SDS011;56038;46.080;11.116;2024-01-15T08:20:48;11.85;;;8.80;;
68987;SDS011;56038;46.080;11.116;2024-01-15T08:25:52;14.98;;;8.43;;
68987;SDS011;56038;46.080;11.116;2024-01-15T08:30:54;13.70;;;8.23;;
68987;SDS011;56038;46.080;11.116;2024-01-15T08:35:56;12.30;;;8.40;;
68987;SDS011;56038;46.080;11.116;2024-01-15T08:40:59;10.57;;;8.65;;
68987;SDS011;56038;46.080;11.116;2024-01-15T08:46:00;11.88;;;9.65;;
68987;SDS011;56038;46.080;11.116;2024-01-15T08:51:02;16.02;;;10.48;;
68987;SDS011;56038;46.080;11.116;2024-01-15T08:56:06;15.02;;;10.43;;
68987;SDS011;56038;46.080;11.116;2024-01-15T09:01:08;14.35;;;9.45;;
68987;SDS011;56038;46.080;11.116;2024-01-15T09:06:10;9.82;;;8.07;;
68987;SDS011;56038;46.080;11.116;2024-01-15T09:11:13;12.23;;;8.55;;
68987;SDS011;56038;46.080;11.116;2024-01-15T09:16:14;12.73;;;9.20;;
68987;SDS011;56038;46.080;11.116;2024-01-15T09:21:16;12.38;;;9.95;;
68987;SDS011;56038;46.080;11.116;2024-01-15T09:26:19;11.10;;;7.70;;
68987;SDS011;56038;46.080;11.116;2024-01-15T09:31:21;16.42;;;7.68;;
68987;SDS011;56038;46.080;11.116;2024-01-15T09:36:22;10.07;;;7.45;;
68987;SDS011;56038;46.080;11.116;2024-01-15T09:41:25;14.23;;;8.15;;
68987;SDS011;56038;46.080;11.116;2024-01-15T09:46:27;8.40;;;7.30;;
68987;SDS011;56038;46.080;11.116;2024-01-15T09:51:30;8.95;;;6.82;;
68987;SDS011;56038;46.080;11.116;2024-01-15T09:56:34;8.70;;;7.30;;
68987;SDS011;56038;46.080;11.116;2024-01-15T10:01:36;9.85;;;7.68;;
68987;SDS011;56038;46.080;11.116;2024-01-15T10:06:39;9.55;;;8.27;;
68987;SDS011;56038;46.080;11.116;2024-01-15T10:11:46;8.75;;;7.55;;
68987;SDS011;56038;46.080;11.116;2024-01-15T10:16:48;8.52;;;7.15;;
68987;SDS011;56038;46.080;11.116;2024-01-15T10:21:50;9.00;;;7.50;;
68987;SDS011;56038;46.080;11.116;2024-01-15T10:26:53;8.55;;;7.60;;
68987;SDS011;56038;46.080;11.116;2024-01-15T10:32:08;10.48;;;7.47;;
68987;SDS011;56038;46.080;11.116;2024-01-15T10:37:10;10.23;;;8.10;;
68987;SDS011;56038;46.080;11.116;2024-01-15T10:42:13;8.40;;;7.50;;
68987;SDS011;56038;46.080;11.116;2024-01-15T10:47:15;8.18;;;7.38;;
68987;SDS011;56038;46.080;11.116;2024-01-15T10:52:17;10.48;;;7.82;;
68987;SDS011;56038;46.080;11.116;2024-01-15T10:57:21;10.13;;;7.78;;
68987;SDS011;56038;46.080;11.116;2024-01-15T11:02:25;8.48;;;6.68;;
68987;SDS011;56038;46.080;11.116;2024-01-15T11:07:29;7.63;;;6.15;;
68987;SDS011;56038;46.080;11.116;2024-01-15T11:12:34;7.60;;;6.10;;
68987;SDS011;56038;46.080;11.116;2024-01-15T11:23:00;9.70;;;6.78;;
68987;SDS011;56038;46.080;11.116;2024-01-15T11:28:03;6.32;;;5.70;;
68987;SDS011;56038;46.080;11.116;2024-01-15T11:33:05;7.22;;;5.97;;
68987;SDS011;56038;46.080;11.116;2024-01-15T11:38:07;6.25;;;5.65;;
68987;SDS011;56038;46.080;11.116;2024-01-15T11:43:10;7.40;;;6.18;;
68987;SDS011;56038;46.080;11.116;2024-01-15T11:48:13;10.20;;;5.70;;
68987;SDS011;56038;46.080;11.116;2024-01-15T11:53:16;9.52;;;5.88;;
68987;SDS011;56038;46.080;11.116;2024-01-15T11:58:21;7.70;;;6.18;;
68987;SDS011;56038;46.080;11.116;2024-01-15T12:03:22;6.05;;;5.45;;
68987;SDS011;56038;46.080;11.116;2024-01-15T12:08:25;9.10;;;6.32;;
68987;SDS011;56038;46.080;11.116;2024-01-15T12:13:28;7.45;;;6.15;;
68987;SDS011;56038;46.080;11.116;2024-01-15T12:18:30;7.38;;;6.13;;
68987;SDS011;56038;46.080;11.116;2024-01-15T12:23:33;7.03;;;6.32;;
68987;SDS011;56038;46.080;11.116;2024-01-15T12:28:36;6.47;;;5.88;;
68987;SDS011;56038;46.080;11.116;2024-01-15T12:33:39;8.70;;;5.80;;
68987;SDS011;56038;46.080;11.116;2024-01-15T12:38:41;6.18;;;5.57;;
68987;SDS011;56038;46.080;11.116;2024-01-15T12:43:44;7.22;;;5.30;;
68987;SDS011;56038;46.080;11.116;2024-01-15T12:48:45;6.70;;;5.10;;
68987;SDS011;56038;46.080;11.116;2024-01-15T12:53:47;6.38;;;5.25;;
68987;SDS011;56038;46.080;11.116;2024-01-15T12:58:50;6.88;;;5.60;;
68987;SDS011;56038;46.080;11.116;2024-01-15T13:03:52;7.28;;;5.40;;
68987;SDS011;56038;46.080;11.116;2024-01-15T13:08:53;7.38;;;5.68;;
68987;SDS011;56038;46.080;11.116;2024-01-15T13:13:56;7.97;;;5.88;;
68987;SDS011;56038;46.080;11.116;2024-01-15T13:18:58;7.63;;;5.60;;
68987;SDS011;56038;46.080;11.116;2024-01-15T13:24:00;7.68;;;6.78;;
68987;SDS011;56038;46.080;11.116;2024-01-15T13:29:03;6.82;;;6.07;;
68987;SDS011;56038;46.080;11.116;2024-01-15T13:34:05;6.80;;;6.10;;
68987;SDS011;56038;46.080;11.116;2024-01-15T13:39:07;7.88;;;6.00;;
68987;SDS011;56038;46.080;11.116;2024-01-15T13:44:10;6.45;;;5.50;;
68987;SDS011;56038;46.080;11.116;2024-01-15T13:49:12;7.45;;;5.85;;
68987;SDS011;56038;46.080;11.116;2024-01-15T13:54:14;8.88;;;6.57;;
68987;SDS011;56038;46.080;11.116;2024-01-15T13:59:19;8.35;;;6.32;;
68987;SDS011;56038;46.080;11.116;2024-01-15T14:04:21;8.88;;;6.93;;
68987;SDS011;56038;46.080;11.116;2024-01-15T14:09:22;7.07;;;6.38;;
68987;SDS011;56038;46.080;11.116;2024-01-15T14:14:26;7.45;;;6.72;;
68987;SDS011;56038;46.080;11.116;2024-01-15T14:19:28;8.35;;;7.22;;
68987;SDS011;56038;46.080;11.116;2024-01-15T14:24:30;8.45;;;6.75;;
68987;SDS011;56038;46.080;11.116;2024-01-15T14:29:33;8.10;;;7.00;;
68987;SDS011;56038;46.080;11.116;2024-01-15T14:34:35;8.80;;;7.00;;
68987;SDS011;56038;46.080;11.116;2024-01-15T14:39:37;9.48;;;7.75;;
68987;SDS011;56038;46.080;11.116;2024-01-15T14:44:40;9.80;;;7.60;;
68987;SDS011;56038;46.080;11.116;2024-01-15T14:49:42;9.07;;;7.05;;
68987;SDS011;56038;46.080;11.116;2024-01-15T14:54:43;10.98;;;8.30;;
68987;SDS011;56038;46.080;11.116;2024-01-15T14:59:46;5.97;;;5.10;;
68987;SDS011;56038;46.080;11.116;2024-01-15T15:04:48;13.43;;;8.43;;
68987;SDS011;56038;46.080;11.116;2024-01-15T15:09:49;11.38;;;7.55;;
68987;SDS011;56038;46.080;11.116;2024-01-15T15:14:54;11.10;;;7.72;;
68987;SDS011;56038;46.080;11.116;2024-01-15T15:19:55;9.98;;;8.43;;
68987;SDS011;56038;46.080;11.116;2024-01-15T15:24:57;12.50;;;8.20;;
68987;SDS011;56038;46.080;11.116;2024-01-15T15:30:00;9.45;;;7.40;;
68987;SDS011;56038;46.080;11.116;2024-01-15T15:35:02;9.52;;;6.57;;
68987;SDS011;56038;46.080;11.116;2024-01-15T15:40:04;10.00;;;6.93;;
68987;SDS011;56038;46.080;11.116;2024-01-15T15:45:10;11.60;;;7.15;;
68987;SDS011;56038;46.080;11.116;2024-01-15T15:50:12;11.63;;;7.97;;
68987;SDS011;56038;46.080;11.116;2024-01-15T15:55:13;12.15;;;7.32;;
68987;SDS011;56038;46.080;11.116;2024-01-15T16:00:16;12.65;;;7.65;;
68987;SDS011;56038;46.080;11.116;2024-01-15T16:05:18;9.88;;;7.05;;
68987;SDS011;56038;46.080;11.116;2024-01-15T16:10:20;12.82;;;8.05;;
68987;SDS011;56038;46.080;11.116;2024-01-15T16:15:23;10.25;;;7.72;;
68987;SDS011;56038;46.080;11.116;2024-01-15T16:20:25;10.23;;;7.25;;
68987;SDS011;56038;46.080;11.116;2024-01-15T16:25:26;11.13;;;7.57;;
68987;SDS011;56038;46.080;11.116;2024-01-15T16:30:30;11.68;;;7.15;;
68987;SDS011;56038;46.080;11.116;2024-01-15T16:35:32;9.63;;;7.35;;
68987;SDS011;56038;46.080;11.116;2024-01-15T16:40:34;10.00;;;6.43;;
68987;SDS011;56038;46.080;11.116;2024-01-15T16:45:37;13.18;;;7.13;;
68987;SDS011;56038;46.080;11.116;2024-01-15T16:50:38;12.30;;;8.07;;
68987;SDS011;56038;46.080;11.116;2024-01-15T16:55:40;12.93;;;7.88;;
68987;SDS011;56038;46.080;11.116;2024-01-15T17:00:43;15.48;;;9.27;;
68987;SDS011;56038;46.080;11.116;2024-01-15T17:05:46;10.80;;;8.10;;
68987;SDS011;56038;46.080;11.116;2024-01-15T17:10:48;11.05;;;7.97;;
68987;SDS011;56038;46.080;11.116;2024-01-15T17:15:51;12.43;;;8.63;;
68987;SDS011;56038;46.080;11.116;2024-01-15T17:20:52;15.68;;;8.95;;
68987;SDS011;56038;46.080;11.116;2024-01-15T17:25:54;13.57;;;8.30;;
68987;SDS011;56038;46.080;11.116;2024-01-15T17:30:57;15.52;;;8.85;;
68987;SDS011;56038;46.080;11.116;2024-01-15T17:35:59;12.73;;;7.55;;
68987;SDS011;56038;46.080;11.116;2024-01-15T17:41:01;21.25;;;12.88;;
68987;SDS011;56038;46.080;11.116;2024-01-15T17:46:04;18.83;;;10.65;;
68987;SDS011;56038;46.080;11.116;2024-01-15T17:51:06;13.30;;;9.15;;
68987;SDS011;56038;46.080;11.116;2024-01-15T17:56:07;19.60;;;9.70;;
68987;SDS011;56038;46.080;11.116;2024-01-15T18:01:10;17.45;;;10.93;;
68987;SDS011;56038;46.080;11.116;2024-01-15T18:06:12;17.48;;;10.40;;
68987;SDS011;56038;46.080;11.116;2024-01-15T18:11:17;11.45;;;8.93;;
68987;SDS011;56038;46.080;11.116;2024-01-15T18:16:21;12.93;;;8.10;;
68987;SDS011;56038;46.080;11.116;2024-01-15T18:21:23;13.57;;;9.02;;
68987;SDS011;56038;46.080;11.116;2024-01-15T18:26:25;20.95;;;12.68;;
68987;SDS011;56038;46.080;11.116;2024-01-15T18:31:28;16.60;;;10.02;;
68987;SDS011;56038;46.080;11.116;2024-01-15T18:36:30;14.43;;;10.45;;
68987;SDS011;56038;46.080;11.116;2024-01-15T18:41:31;17.77;;;11.32;;
68987;SDS011;56038;46.080;11.116;2024-01-15T18:46:35;16.15;;;10.52;;
68987;SDS011;56038;46.080;11.116;2024-01-15T18:51:37;15.05;;;10.55;;
68987;SDS011;56038;46.080;11.116;2024-01-15T18:56:39;15.50;;;11.07;;
68987;SDS011;56038;46.080;11.116;2024-01-15T19:01:42;18.13;;;12.80;;
68987;SDS011;56038;46.080;11.116;2024-01-15T19:06:44;17.10;;;11.45;;
68987;SDS011;56038;46.080;11.116;2024-01-15T19:11:46;19.63;;;12.75;;
68987;SDS011;56038;46.080;11.116;2024-01-15T19:16:49;14.95;;;10.13;;
68987;SDS011;56038;46.080;11.116;2024-01-15T19:21:51;19.90;;;12.43;;
68987;SDS011;56038;46.080;11.116;2024-01-15T19:26:53;27.35;;;14.90;;
68987;SDS011;56038;46.080;11.116;2024-01-15T19:31:56;21.23;;;13.30;;
68987;SDS011;56038;46.080;11.116;2024-01-15T19:36:58;19.52;;;11.52;;
68987;SDS011;56038;46.080;11.116;2024-01-15T19:42:01;17.10;;;10.82;;
68987;SDS011;56038;46.080;11.116;2024-01-15T19:47:04;18.45;;;11.65;;
68987;SDS011;56038;46.080;11.116;2024-01-15T19:52:06;18.38;;;12.43;;
68987;SDS011;56038;46.080;11.116;2024-01-15T19:57:08;16.63;;;10.40;;
68987;SDS011;56038;46.080;11.116;2024-01-15T20:02:11;19.45;;;10.90;;
68987;SDS011;56038;46.080;11.116;2024-01-15T20:07:12;15.07;;;10.48;;
68987;SDS011;56038;46.080;11.116;2024-01-15T20:12:14;17.48;;;11.18;;
68987;SDS011;56038;46.080;11.116;2024-01-15T20:17:17;23.30;;;13.95;;
68987;SDS011;56038;46.080;11.116;2024-01-15T20:22:19;16.73;;;9.85;;
68987;SDS011;56038;46.080;11.116;2024-01-15T20:27:21;18.33;;;10.52;;
68987;SDS011;56038;46.080;11.116;2024-01-15T20:32:24;16.95;;;9.85;;
68987;SDS011;56038;46.080;11.116;2024-01-15T20:37:26;16.83;;;9.88;;
68987;SDS011;56038;46.080;11.116;2024-01-15T20:42:28;15.82;;;8.98;;
68987;SDS011;56038;46.080;11.116;2024-01-15T20:47:31;20.30;;;11.48;;
68987;SDS011;56038;46.080;11.116;2024-01-15T20:52:33;17.70;;;11.35;;
68987;SDS011;56038;46.080;11.116;2024-01-15T20:57:35;13.05;;;10.23;;
68987;SDS011;56038;46.080;11.116;2024-01-15T21:02:38;18.02;;;11.07;;
68987;SDS011;56038;46.080;11.116;2024-01-15T21:07:40;16.45;;;11.43;;
68987;SDS011;56038;46.080;11.116;2024-01-15T21:12:43;18.85;;;11.80;;
68987;SDS011;56038;46.080;11.116;2024-01-15T21:17:46;21.48;;;13.07;;
68987;SDS011;56038;46.080;11.116;2024-01-15T21:22:48;18.95;;;12.20;;
68987;SDS011;56038;46.080;11.116;2024-01-15T21:27:50;19.67;;;10.98;;
68987;SDS011;56038;46.080;11.116;2024-01-15T21:32:53;19.38;;;11.35;;
68987;SDS011;56038;46.080;11.116;2024-01-15T21:37:55;17.92;;;11.95;;
68987;SDS011;56038;46.080;11.116;2024-01-15T21:42:57;20.00;;;11.27;;
68987;SDS011;56038;46.080;11.116;2024-01-15T21:48:00;22.35;;;13.05;;
68987;SDS011;56038;46.080;11.116;2024-01-15T21:53:01;19.63;;;12.20;;
68987;SDS011;56038;46.080;11.116;2024-01-15T21:58:03;20.10;;;12.75;;
68987;SDS011;56038;46.080;11.116;2024-01-15T22:03:06;20.58;;;12.50;;
68987;SDS011;56038;46.080;11.116;2024-01-15T22:08:08;20.35;;;12.85;;
68987;SDS011;56038;46.080;11.116;2024-01-15T22:13:10;18.48;;;11.40;;
68987;SDS011;56038;46.080;11.116;2024-01-15T22:18:13;18.25;;;12.05;;
68987;SDS011;56038;46.080;11.116;2024-01-15T22:23:15;17.05;;;11.05;;
68987;SDS011;56038;46.080;11.116;2024-01-15T22:28:17;14.35;;;9.77;;
68987;SDS011;56038;46.080;11.116;2024-01-15T22:33:20;16.17;;;12.00;;
68987;SDS011;56038;46.080;11.116;2024-01-15T22:38:21;15.20;;;10.93;;
68987;SDS011;56038;46.080;11.116;2024-01-15T22:43:23;13.75;;;9.95;;
68987;SDS011;56038;46.080;11.116;2024-01-15T22:48:26;16.50;;;10.73;;
68987;SDS011;56038;46.080;11.116;2024-01-15T22:53:27;19.00;;;11.18;;
68987;SDS011;56038;46.080;11.116;2024-01-15T22:58:29;19.63;;;11.88;;
68987;SDS011;56038;46.080;11.116;2024-01-15T23:03:32;18.40;;;10.32;;
68987;SDS011;56038;46.080;11.116;2024-01-15T23:08:34;15.05;;;9.63;;
68987;SDS011;56038;46.080;11.116;2024-01-15T23:13:35;13.27;;;10.02;;
68987;SDS011;56038;46.080;11.116;2024-01-15T23:18:41;14.63;;;9.65;;
68987;SDS011;56038;46.080;11.116;2024-01-15T23:23:42;14.63;;;9.43;;
68987;SDS011;56038;46.080;11.116;2024-01-15T23:28:44;13.55;;;9.95;;
68987;SDS011;56038;46.080;11.116;2024-01-15T23:33:47;15.57;;;9.80;;
68987;SDS011;56038;46.080;11.116;2024-01-15T23:38:49;15.05;;;10.13;;
68987;SDS011;56038;46.080;11.116;2024-01-15T23:43:50;15.73;;;10.25;;
68987;SDS011;56038;46.080;11.116;2024-01-15T23:48:53;15.10;;;10.10;;
68987;SDS011;56038;46.080;11.116;2024-01-15T23:53:55;15.75;;;9.73;;
68987;SDS011;56038;46.080;11.116;2024-01-15T23:58:56;14.75;;;8.80;;
